Time;durP1;ratioP1;P1;durP2;ratioP2;P2;SDS_P1;SDS_P2;PMS_P1;PMS_P2;Temp;Humidity;BMP_temperature;BMP_pressure;BME280_temperature;BME280_humidity;BME280_pressure;Samples;Min_cycle;Max_cycle;Signal;HPM_P1;HPM_P2
2022/04/12 00:00:17;;;;;;;1.35;0.30;;;;;;;24.52;54.94;101765.75;5058436;28;20029;-66
2022/04/12 00:02:42;;;;;;;0.30;0.13;;;;;;;24.48;54.97;101764.41;5052081;28;20024;-65
2022/04/12 00:05:11;;;;;;;0.43;0.20;;;;;;;24.51;54.66;101766.78;5052218;28;20025;-67
2022/04/12 00:07:37;;;;;;;0.73;0.20;;;;;;;24.46;55.38;101769.25;5052089;28;20502;-66
2022/04/12 00:10:02;;;;;;;0.52;0.10;;;;;;;24.50;55.29;101771.44;5056055;28;20124;-65
2022/04/12 00:12:28;;;;;;;0.50;0.30;;;;;;;24.48;54.90;101778.16;5055697;28;20354;-67
2022/04/12 00:14:53;;;;;;;0.80;0.28;;;;;;;24.49;55.45;101772.47;5055991;28;20048;-66
2022/04/12 00:20:04;;;;;;;1.00;0.28;;;;;;;24.46;55.55;101777.50;5056124;28;20047;-66
2022/04/12 00:22:29;;;;;;;1.77;0.30;;;;;;;24.43;55.02;101780.63;5055587;28;20075;-66
2022/04/12 00:24:54;;;;;;;0.30;0.20;;;;;;;24.47;54.34;101781.97;5057434;28;20515;-65
2022/04/12 00:27:20;;;;;;;1.30;0.28;;;;;;;24.47;54.84;101787.47;5063089;28;20024;-66
2022/04/12 00:29:45;;;;;;;0.55;0.20;;;;;;;24.43;54.75;101791.63;5055572;28;20031;-66
2022/04/12 00:32:10;;;;;;;0.13;0.13;;;;;;;24.44;55.04;101794.19;5055583;28;20017;-65
2022/04/12 00:34:37;;;;;;;0.65;0.30;;;;;;;24.42;54.79;101790.78;5055723;28;20460;-65
2022/04/12 00:37:02;;;;;;;0.57;0.20;;;;;;;24.47;54.64;101803.94;5055564;28;20104;-66
2022/04/12 00:39:28;;;;;;;1.73;0.32;;;;;;;24.47;54.46;101798.44;5055274;28;20166;-65
2022/04/12 00:41:54;;;;;;;1.30;0.28;;;;;;;24.42;54.55;101801.78;5055557;28;20024;-65
2022/04/12 00:44:19;;;;;;;0.80;0.30;;;;;;;24.40;55.17;101805.75;5055187;28;20021;-67
2022/04/12 00:46:44;;;;;;;0.95;0.22;;;;;;;24.44;55.27;101812.56;5055368;28;20029;-65
2022/04/12 00:49:09;;;;;;;0.30;0.20;;;;;;;24.44;55.12;101820.81;5055255;28;20448;-65
2022/04/12 00:51:35;;;;;;;0.20;0.10;;;;;;;24.43;55.19;101830.13;5055238;28;20033;-65
2022/04/12 00:54:00;;;;;;;0.45;0.20;;;;;;;24.43;55.00;101827.38;5055215;28;20078;-66
2022/04/12 00:56:26;;;;;;;1.00;0.30;;;;;;;24.42;55.08;101829.25;5053746;28;20021;-65
2022/04/12 00:58:51;;;;;;;0.95;0.43;;;;;;;24.42;54.68;101822.91;5055375;28;20388;-65
2022/04/12 01:01:16;;;;;;;0.55;0.20;;;;;;;24.46;54.81;101818.72;5056114;28;20021;-66
2022/04/12 01:03:42;;;;;;;0.95;0.30;;;;;;;24.40;54.86;101827.75;5065043;28;20046;-65
2022/04/12 01:06:08;;;;;;;0.22;0.10;;;;;;;24.42;54.47;101844.91;5054972;28;20453;-65
2022/04/12 01:08:34;;;;;;;1.00;0.20;;;;;;;24.41;54.77;101833.06;5054821;28;20025;-66
2022/04/12 01:11:06;;;;;;;1.27;0.45;;;;;;;24.40;54.62;101838.75;5053535;28;20031;-65
2022/04/12 01:13:32;;;;;;;0.63;0.20;;;;;;;24.41;54.93;101837.69;5053467;28;20025;-65
2022/04/12 01:15:57;;;;;;;0.75;0.20;;;;;;;24.42;55.06;101833.91;5054855;28;20031;-67
2022/04/12 01:18:22;;;;;;;0.40;0.20;;;;;;;24.41;54.80;101849.53;5054639;28;20457;-66
2022/04/12 01:20:48;;;;;;;0.30;0.30;;;;;;;24.41;55.02;101849.53;5053559;28;20029;-65
2022/04/12 01:23:22;;;;;;;0.98;0.30;;;;;;;24.42;54.79;101844.91;5054762;28;20052;-66
2022/04/12 01:25:48;;;;;;;0.73;0.38;;;;;;;24.38;55.33;101849.06;5054693;28;20083;-66
2022/04/12 01:28:13;;;;;;;0.40;0.30;;;;;;;24.39;54.91;101848.03;5054476;28;20395;-65
2022/04/12 01:30:39;;;;;;;0.32;0.20;;;;;;;24.41;54.44;101854.19;5054507;28;20096;-65
2022/04/12 01:33:05;;;;;;;0.90;0.20;;;;;;;24.41;54.68;101852.28;5054487;28;20375;-66
2022/04/12 01:35:31;;;;;;;0.20;0.20;;;;;;;24.38;55.38;101854.56;5054515;28;20104;-65
2022/04/12 01:37:56;;;;;;;0.50;0.30;;;;;;;24.37;55.03;101842.72;5054448;28;20490;-65
2022/04/12 01:40:22;;;;;;;0.50;0.15;;;;;;;24.38;54.83;101854.56;5054191;28;20028;-66
2022/04/12 01:42:47;;;;;;;0.82;0.20;;;;;;;24.39;54.67;101850.78;5054309;28;20032;-65
2022/04/12 01:45:12;;;;;;;1.73;0.40;;;;;;;24.39;55.28;101864.50;5054187;28;20024;-66
2022/04/12 01:47:38;;;;;;;1.92;0.52;;;;;;;24.37;55.26;101863.84;5071032;28;20025;-66
2022/04/12 01:50:04;;;;;;;0.70;0.30;;;;;;;24.38;55.03;101860.06;5054124;28;20037;-65
2022/04/12 01:52:30;;;;;;;0.60;0.30;;;;;;;24.35;54.63;101872.25;5053693;28;20145;-65
2022/04/12 01:54:55;;;;;;;0.70;0.20;;;;;;;24.38;54.67;101869.16;5054152;28;20444;-66
2022/04/12 01:57:20;;;;;;;1.17;0.30;;;;;;;24.37;54.68;101880.34;5053836;28;20096;-66
2022/04/12 01:59:45;;;;;;;0.22;0.20;;;;;;;24.39;54.75;101878.25;5053907;28;20040;-64
2022/04/12 02:02:11;;;;;;;0.35;0.30;;;;;;;24.37;55.11;101881.19;5053897;28;20071;-66
2022/04/12 02:04:36;;;;;;;1.08;0.32;;;;;;;24.37;54.90;101874.84;5053784;28;20372;-66
2022/04/12 02:07:02;;;;;;;1.48;0.28;;;;;;;24.38;55.32;101882.06;5053891;28;20070;-64
2022/04/12 02:09:27;;;;;;;1.90;0.45;;;;;;;24.38;54.37;101882.91;5053612;28;20023;-65
2022/04/12 02:11:53;;;;;;;0.22;0.10;;;;;;;24.35;55.01;101882.41;5053740;28;20102;-66
2022/04/12 02:14:19;;;;;;;0.77;0.20;;;;;;;24.37;55.06;101885.84;5053503;28;20021;-65
2022/04/12 02:16:44;;;;;;;0.88;0.35;;;;;;;24.35;54.65;101886.00;5053616;28;20590;-66
2022/04/12 02:19:09;;;;;;;0.82;0.40;;;;;;;24.36;54.39;101885.00;5053614;28;20107;-66
2022/04/12 02:21:35;;;;;;;0.60;0.20;;;;;;;24.36;54.82;101900.63;5052074;28;20023;-65
2022/04/12 02:24:00;;;;;;;0.68;0.10;;;;;;;24.36;54.57;101889.63;5053379;28;20104;-65
2022/04/12 02:26:25;;;;;;;0.40;0.20;;;;;;;24.36;54.90;101895.13;5053225;28;20036;-66
2022/04/12 02:28:50;;;;;;;1.13;0.20;;;;;;;24.38;54.57;101904.03;5053524;28;20025;-65
2022/04/12 02:31:16;;;;;;;0.82;0.40;;;;;;;24.36;54.82;101900.63;5062162;28;20037;-61
2022/04/12 02:33:41;;;;;;;0.40;0.20;;;;;;;24.36;54.92;101900.63;5062386;28;20028;-66
2022/04/12 02:36:06;;;;;;;0.20;0.20;;;;;;;24.35;54.48;101907.13;5053355;28;20468;-65
2022/04/12 02:38:32;;;;;;;0.40;0.20;;;;;;;24.38;54.29;101913.13;5053644;28;20025;-65
2022/04/12 02:40:57;;;;;;;0.55;0.10;;;;;;;24.35;54.12;101915.38;5053290;28;20021;-66
2022/04/12 02:43:22;;;;;;;0.25;0.10;;;;;;;24.35;54.65;101905.25;5053315;28;20025;-65
2022/04/12 02:45:48;;;;;;;0.40;0.10;;;;;;;24.34;54.75;101911.78;5053184;28;20399;-64
2022/04/12 02:48:13;;;;;;;1.00;0.10;;;;;;;24.35;54.45;101912.63;5052980;28;20487;-66
2022/04/12 02:50:39;;;;;;;0.15;0.10;;;;;;;24.34;54.77;101922.75;5053309;28;20021;-65
2022/04/12 02:53:05;;;;;;;0.88;0.30;;;;;;;24.35;54.09;101927.22;5051718;28;20041;-65
2022/04/12 02:55:30;;;;;;;0.30;0.20;;;;;;;24.34;54.46;101936.50;5052763;28;20404;-65
2022/04/12 02:57:55;;;;;;;0.63;0.22;;;;;;;24.32;55.24;101927.59;5052917;28;20506;-66
2022/04/12 03:00:21;;;;;;;0.20;0.10;;;;;;;24.33;54.22;101933.94;5052599;28;20027;-64
2022/04/12 03:02:46;;;;;;;0.50;0.30;;;;;;;24.33;54.40;101931.19;5052820;28;20031;-65
2022/04/12 03:05:11;;;;;;;0.30;0.20;;;;;;;24.35;54.21;101940.09;5052816;28;20120;-65
2022/04/12 03:07:37;;;;;;;0.35;0.10;;;;;;;24.33;54.46;101944.94;5052709;28;20025;-64
2022/04/12 03:10:03;;;;;;;0.22;0.15;;;;;;;24.35;55.13;101942.84;5052808;28;20383;-65
2022/04/12 03:12:28;;;;;;;0.95;0.13;;;;;;;24.36;54.09;101933.59;5052346;28;20025;-66
2022/04/12 03:14:54;;;;;;;0.50;0.20;;;;;;;24.34;54.53;101927.41;5051514;28;20025;-64
2022/04/12 03:17:20;;;;;;;0.50;0.20;;;;;;;24.32;54.20;101932.25;5065584;28;20029;-63
2022/04/12 03:19:46;;;;;;;0.30;0.10;;;;;;;24.32;55.12;101927.59;5059639;28;20016;-66
2022/04/12 03:22:11;;;;;;;0.20;0.20;;;;;;;24.34;54.94;101943.91;5052549;28;20017;-65
2022/04/12 03:24:36;;;;;;;0.45;0.20;;;;;;;24.31;54.34;101939.63;5052504;28;20107;-65
2022/04/12 03:27:02;;;;;;;0.60;0.20;;;;;;;24.33;54.55;101944.94;5052626;28;20398;-66
2022/04/12 03:29:27;;;;;;;1.05;0.22;;;;;;;24.33;54.24;101940.28;5052320;28;20025;-65
2022/04/12 03:31:53;;;;;;;1.45;0.22;;;;;;;24.33;54.15;101940.28;5051141;28;20024;-64
2022/04/12 03:34:18;;;;;;;0.40;0.30;;;;;;;24.32;54.30;101937.75;5052220;28;20025;-65
2022/04/12 03:36:44;;;;;;;1.13;0.20;;;;;;;24.32;54.53;101943.22;5052654;28;20045;-66
2022/04/12 03:39:16;;;;;;;0.85;0.20;;;;;;;24.34;54.21;101949.41;5052309;28;20039;-64
2022/04/12 03:41:41;;;;;;;0.90;0.43;;;;;;;24.33;54.46;101948.53;5052376;28;20028;-64
2022/04/12 03:44:07;;;;;;;1.30;0.30;;;;;;;24.35;54.47;101937.38;5054999;28;20028;-66
2022/04/12 03:46:32;;;;;;;0.88;0.40;;;;;;;24.34;54.03;101943.91;5056331;28;20434;-64
2022/04/12 03:48:58;;;;;;;0.30;0.10;;;;;;;24.33;54.19;101940.28;5057088;28;20036;-65
2022/04/12 03:51:23;;;;;;;0.75;0.20;;;;;;;24.32;54.84;101946.84;5056014;28;20467;-66
2022/04/12 03:53:49;;;;;;;0.35;0.20;;;;;;;24.32;55.00;101948.72;5056346;28;20043;-64
2022/04/12 03:56:15;;;;;;;0.82;0.22;;;;;;;24.34;54.27;101946.66;5056150;28;20029;-65
2022/04/12 03:58:41;;;;;;;0.45;0.30;;;;;;;24.32;54.29;101960.56;5056753;28;20020;-66
2022/04/12 04:01:06;;;;;;;1.00;0.30;;;;;;;24.30;54.48;101952.50;5056275;28;20063;-65
2022/04/12 04:03:32;;;;;;;0.30;0.10;;;;;;;24.52;54.05;101955.41;5063398;28;20036;-64
2022/04/12 04:05:57;;;;;;;2.20;0.22;;;;;;;24.62;53.56;101961.53;5056216;28;20021;-66
2022/04/12 04:08:23;;;;;;;0.30;0.20;;;;;;;24.73;53.30;101955.59;5054651;28;20429;-65
2022/04/12 04:10:48;;;;;;;0.57;0.20;;;;;;;24.78;53.01;101958.63;5056011;28;20025;-64
2022/04/12 04:13:15;;;;;;;0.40;0.10;;;;;;;24.86;52.54;101964.03;5055851;28;20039;-65
2022/04/12 04:15:40;;;;;;;0.57;0.10;;;;;;;24.90;52.92;101964.53;5056090;28;20060;-65
2022/04/12 04:18:09;;;;;;;1.05;0.30;;;;;;;24.91;52.76;101960.72;5055929;28;20102;-65
2022/04/12 04:20:35;;;;;;;0.80;0.25;;;;;;;24.97;53.10;101967.34;5055775;28;20039;-65
2022/04/12 04:23:01;;;;;;;0.45;0.10;;;;;;;25.02;52.69;101973.19;5055842;28;20016;-66
2022/04/12 04:25:27;;;;;;;0.20;0.10;;;;;;;25.05;52.08;101978.31;5055610;28;20028;-64
2022/04/12 04:27:52;;;;;;;0.60;0.10;;;;;;;25.06;53.07;101974.53;5056090;28;20033;-65
2022/04/12 04:30:19;;;;;;;0.38;0.10;;;;;;;25.08;52.64;101980.69;5055434;28;20462;-66
2022/04/12 04:32:45;;;;;;;0.50;0.10;;;;;;;25.11;52.41;101977.56;5055610;28;20025;-65
2022/04/12 04:35:11;;;;;;;0.63;0.20;;;;;;;25.13;52.39;101981.81;5055565;28;20035;-65
2022/04/12 04:37:47;;;;;;;0.25;0.10;;;;;;;25.17;52.22;101982.28;5055478;28;20032;-66
2022/04/12 04:40:17;;;;;;;0.40;0.20;;;;;;;25.16;53.00;101978.69;5054184;28;20476;-64
2022/04/12 04:42:44;;;;;;;0.98;0.28;;;;;;;25.16;52.72;101988.84;5055477;28;20024;-64
2022/04/12 04:45:10;;;;;;;0.50;0.13;;;;;;;25.19;52.91;101985.69;5055448;28;20028;-65
2022/04/12 04:47:46;;;;;;;1.65;0.40;;;;;;;25.19;52.48;101991.22;5060159;28;20025;-65
2022/04/12 04:50:12;;;;;;;0.57;0.25;;;;;;;25.24;52.11;101988.75;5055260;28;20044;-64
2022/04/12 04:52:38;;;;;;;0.15;0.15;;;;;;;25.23;52.50;101981.56;5055100;28;20040;-65
2022/04/12 04:55:03;;;;;;;0.47;0.20;;;;;;;25.26;52.20;101994.94;5055126;28;20055;-66
2022/04/12 04:57:28;;;;;;;0.98;0.20;;;;;;;25.28;52.79;102001.09;5054932;28;20016;-64
2022/04/12 04:59:54;;;;;;;0.40;0.20;;;;;;;25.29;52.55;101997.28;5055158;28;20025;-65
2022/04/12 05:02:19;;;;;;;0.28;0.10;;;;;;;25.33;52.71;102003.28;5054945;28;20461;-66
2022/04/12 05:04:44;;;;;;;1.40;0.22;;;;;;;25.32;52.60;102004.31;5055063;28;20029;-65
2022/04/12 05:07:10;;;;;;;1.27;0.38;;;;;;;25.33;51.83;102009.63;5054960;28;20033;-64
2022/04/12 05:09:35;;;;;;;0.60;0.17;;;;;;;25.33;52.35;102009.63;5054733;28;20486;-66
2022/04/12 05:12:00;;;;;;;0.63;0.25;;;;;;;25.36;52.61;102009.28;5054956;28;20064;-64
2022/04/12 05:14:25;;;;;;;0.82;0.22;;;;;;;25.38;52.32;102011.84;5053435;28;20060;-64
2022/04/12 05:16:51;;;;;;;0.45;0.20;;;;;;;25.35;52.56;102007.53;5054821;28;20232;-65
2022/04/12 05:19:16;;;;;;;0.52;0.40;;;;;;;25.36;52.51;102009.28;5054581;28;20028;-65
2022/04/12 05:21:41;;;;;;;0.70;0.25;;;;;;;25.39;52.19;102014.38;5054653;28;20017;-64
2022/04/12 05:24:07;;;;;;;0.32;0.25;;;;;;;25.40;52.12;102015.25;5053460;28;20025;-66
2022/04/12 05:26:32;;;;;;;0.95;0.40;;;;;;;25.43;52.72;102015.72;5054490;28;20055;-65
2022/04/12 05:28:57;;;;;;;0.75;0.30;;;;;;;25.39;52.87;102017.16;5053691;28;20483;-64
2022/04/12 05:31:22;;;;;;;0.55;0.17;;;;;;;25.43;52.62;102018.47;5055098;28;20029;-60
2022/04/12 05:33:48;;;;;;;0.57;0.38;;;;;;;25.44;52.92;102027.56;5062771;28;20447;-65
2022/04/12 05:36:13;;;;;;;1.13;0.20;;;;;;;25.45;52.46;102035.66;5053109;28;20017;-64
2022/04/12 05:38:39;;;;;;;0.82;0.20;;;;;;;25.46;52.33;102039.25;5054412;28;20025;-64
2022/04/12 05:41:04;;;;;;;0.43;0.20;;;;;;;25.47;52.82;102047.31;5054454;28;20028;-65
2022/04/12 05:43:29;;;;;;;0.63;0.17;;;;;;;25.45;52.40;102034.78;5054101;28;20108;-64
2022/04/12 05:45:54;;;;;;;0.30;0.20;;;;;;;25.43;52.35;102043.25;5054325;28;20036;-64
2022/04/12 05:48:20;;;;;;;0.25;0.13;;;;;;;25.44;52.91;102035.84;5049998;28;20035;-65
2022/04/12 05:50:45;;;;;;;1.25;0.35;;;;;;;25.50;52.52;102046.06;5044134;28;20032;-64
2022/04/12 05:53:10;;;;;;;0.30;0.20;;;;;;;25.48;52.35;102040.75;5051559;28;20069;-64
2022/04/12 05:55:35;;;;;;;0.30;0.20;;;;;;;25.49;52.63;102052.63;5051581;28;20025;-65
2022/04/12 05:58:03;;;;;;;0.60;0.30;;;;;;;25.49;52.14;102050.72;5052726;28;20025;-64
2022/04/12 06:00:30;;;;;;;0.13;0.13;;;;;;;25.47;52.45;102061.09;5053770;28;20021;-64
2022/04/12 06:02:56;;;;;;;0.43;0.10;;;;;;;25.50;52.98;102062.59;5053950;28;20431;-66
2022/04/12 06:05:23;;;;;;;0.43;0.20;;;;;;;25.56;52.25;102052.75;5052427;28;20426;-65
2022/04/12 06:07:49;;;;;;;0.32;0.10;;;;;;;25.55;52.67;102062.06;5051586;28;20027;-62
2022/04/12 06:10:16;;;;;;;1.48;0.20;;;;;;;25.55;51.88;102062.06;5050566;28;20029;-64
2022/04/12 06:12:42;;;;;;;0.20;0.10;;;;;;;25.54;52.78;102065.84;5053633;28;20055;-65
2022/04/12 06:15:08;;;;;;;0.52;0.10;;;;;;;25.57;52.05;102065.47;5053533;28;20056;-64
2022/04/12 06:17:36;;;;;;;0.40;0.17;;;;;;;25.53;52.71;102075.13;5052718;28;20035;-64
2022/04/12 06:20:07;;;;;;;0.70;0.32;;;;;;;25.55;52.24;102075.81;5065740;28;20032;-65
2022/04/12 06:22:33;;;;;;;0.63;0.13;;;;;;;25.56;52.67;102081.13;5051207;28;20021;-64
2022/04/12 06:24:59;;;;;;;0.30;0.10;;;;;;;25.61;52.19;102086.06;5053506;28;20469;-64
2022/04/12 06:27:38;;;;;;;0.20;0.13;;;;;;;25.59;52.23;102086.25;5053239;28;20021;-65
2022/04/12 06:30:06;;;;;;;0.40;0.20;;;;;;;25.61;51.82;102083.31;5053315;28;20029;-64
2022/04/12 06:32:32;;;;;;;0.30;0.20;;;;;;;25.60;52.30;102092.63;5052071;28;20025;-63
2022/04/12 06:34:57;;;;;;;0.80;0.20;;;;;;;25.59;52.62;102082.66;5051808;28;20029;-66
2022/04/12 06:37:26;;;;;;;0.43;0.10;;;;;;;25.46;52.37;102092.41;5055639;28;20031;-65
2022/04/12 06:39:52;;;;;;;0.47;0.25;;;;;;;25.31;52.28;102087.94;5052136;28;20567;-63
2022/04/12 06:42:18;;;;;;;0.22;0.10;;;;;;;25.18;53.02;102088.56;5053008;28;20024;-65
2022/04/12 06:44:43;;;;;;;0.45;0.20;;;;;;;25.18;52.76;102086.66;5053180;28;20474;-65
2022/04/12 06:47:09;;;;;;;0.30;0.10;;;;;;;25.05;52.66;102082.88;5051793;28;20017;-64
2022/04/12 06:49:34;;;;;;;0.35;0.10;;;;;;;25.00;51.71;102085.31;5048149;28;20032;-64
2022/04/12 06:51:59;;;;;;;1.30;0.22;;;;;;;24.88;51.12;102083.00;5046569;28;20041;-65
2022/04/12 06:54:25;;;;;;;0.40;0.35;;;;;;;24.85;50.86;102094.34;5051216;28;20452;-64
2022/04/12 06:56:51;;;;;;;1.05;0.80;;;;;;;24.78;50.77;102093.38;5051925;28;20032;-64
2022/04/12 06:59:16;;;;;;;0.10;0.10;;;;;;;24.72;50.39;102087.78;5050538;28;20029;-65
2022/04/12 07:01:41;;;;;;;1.05;0.30;;;;;;;24.67;49.32;102091.03;5054728;28;20046;-62
2022/04/12 07:04:07;;;;;;;0.68;0.20;;;;;;;24.61;50.34;102102.78;5065020;28;20041;-64
2022/04/12 07:06:32;;;;;;;0.57;0.20;;;;;;;24.59;49.91;102099.38;5053937;28;20030;-65
2022/04/12 07:08:57;;;;;;;0.30;0.20;;;;;;;24.57;49.81;102102.31;5041028;28;20028;-65
2022/04/12 07:11:22;;;;;;;0.30;0.10;;;;;;;24.54;50.06;102099.94;5035407;28;20037;-64
2022/04/12 07:13:48;;;;;;;0.70;0.15;;;;;;;24.53;49.64;102105.63;5052455;28;20067;-64
2022/04/12 07:16:13;;;;;;;0.20;0.20;;;;;;;24.55;49.04;102114.53;5048398;28;20028;-65
2022/04/12 07:18:40;;;;;;;0.10;0.10;;;;;;;24.51;48.84;102114.00;5062712;28;20480;-64
2022/04/12 07:21:05;;;;;;;0.68;0.15;;;;;;;24.49;48.97;102105.09;5038764;28;20025;-65
2022/04/12 07:23:30;;;;;;;0.77;0.22;;;;;;;24.46;49.04;102105.47;5050966;28;20025;-67
2022/04/12 07:25:56;;;;;;;0.60;0.25;;;;;;;24.32;48.29;102119.13;5050281;28;20037;-65
2022/04/12 07:28:21;;;;;;;0.35;0.10;;;;;;;24.30;47.91;102114.66;5041354;28;20456;-66
2022/04/12 07:30:46;;;;;;;0.98;0.10;;;;;;;24.29;47.04;102117.59;5052206;28;20031;-66
2022/04/12 07:33:11;;;;;;;0.60;0.10;;;;;;;24.29;46.82;102115.69;5048264;28;20033;-65
2022/04/12 07:35:37;;;;;;;0.20;0.10;;;;;;;24.25;46.71;102113.47;5049068;28;20029;-64
2022/04/12 07:38:02;;;;;;;0.25;0.17;;;;;;;24.25;46.56;102119.81;5049907;28;20040;-66
2022/04/12 07:40:27;;;;;;;1.55;0.30;;;;;;;24.23;46.08;102121.91;5050699;28;20022;-65
2022/04/12 07:42:53;;;;;;;1.73;0.15;;;;;;;24.16;43.75;102115.38;5050398;28;20116;-65
2022/04/12 07:45:18;;;;;;;0.45;0.10;;;;;;;24.14;44.23;102116.59;5052976;28;20033;-68
2022/04/12 07:47:43;;;;;;;0.20;0.10;;;;;;;24.16;44.03;102123.63;5056999;28;20036;-63
2022/04/12 07:50:09;;;;;;;1.10;0.20;;;;;;;24.11;43.54;102128.81;5051464;28;20449;-63
2022/04/12 07:52:35;;;;;;;0.28;0.10;;;;;;;24.08;44.31;102131.06;5049541;28;20044;-65
2022/04/12 07:55:00;;;;;;;0.05;0.00;;;;;;;24.01;42.82;102130.91;5051819;28;20029;-63
2022/04/12 07:57:28;;;;;;;0.47;0.10;;;;;;;24.04;44.68;102122.34;5051366;28;20195;-64
2022/04/12 07:59:53;;;;;;;0.70;0.10;;;;;;;24.14;45.18;102128.44;5051517;28;20100;-65
2022/04/12 08:02:18;;;;;;;0.55;0.03;;;;;;;24.19;46.03;102126.03;5051735;28;20546;-65
2022/04/12 08:04:44;;;;;;;0.38;0.20;;;;;;;24.21;47.40;102134.97;5052080;28;20021;-64
2022/04/12 08:07:10;;;;;;;2.00;0.20;;;;;;;24.24;47.73;102131.84;5053556;28;20037;-64
2022/04/12 08:09:35;;;;;;;0.45;0.17;;;;;;;24.26;47.67;102138.03;5056332;28;20037;-64
2022/04/12 08:12:00;;;;;;;0.50;0.20;;;;;;;24.24;48.33;102131.84;5052139;28;20060;-64
2022/04/12 08:14:26;;;;;;;0.55;0.20;;;;;;;24.30;48.64;102136.66;5051961;28;20271;-64
2022/04/12 08:16:52;;;;;;;0.28;0.20;;;;;;;24.28;48.70;102141.44;5052159;28;20479;-64
2022/04/12 08:19:17;;;;;;;0.10;0.10;;;;;;;24.28;48.65;102130.44;5050596;28;20468;-64
2022/04/12 08:21:43;;;;;;;0.73;0.15;;;;;;;24.32;49.71;102119.13;5050469;28;20039;-63
2022/04/12 08:24:08;;;;;;;0.65;0.28;;;;;;;24.25;49.70;102119.81;5059722;28;20032;-62
2022/04/12 08:26:35;;;;;;;1.23;0.10;;;;;;;24.34;49.85;102122.53;5043821;28;20028;-64
2022/04/12 08:29:00;;;;;;;1.30;0.20;;;;;;;24.33;49.58;102127.19;5052343;28;20383;-64
2022/04/12 08:31:25;;;;;;;1.33;0.20;;;;;;;24.32;50.22;102124.63;5050697;28;20494;-64
2022/04/12 08:33:51;;;;;;;1.40;0.10;;;;;;;24.32;50.75;102135.59;5054148;28;20647;-65
2022/04/12 08:36:20;;;;;;;0.38;0.08;;;;;;;24.29;49.98;102132.19;5053717;28;20025;-64
2022/04/12 08:38:45;;;;;;;0.73;0.30;;;;;;;24.28;50.61;102133.19;5038612;28;20033;-64
2022/04/12 08:41:13;;;;;;;0.50;0.30;;;;;;;24.29;50.28;102142.31;5052679;28;20040;-65
2022/04/12 08:43:39;;;;;;;2.15;0.35;;;;;;;24.24;50.17;102145.59;5049174;28;20021;-63
2022/04/12 08:46:06;;;;;;;0.47;0.10;;;;;;;24.27;47.47;102145.22;5053866;28;20032;-65
2022/04/12 08:48:32;;;;;;;1.38;0.10;;;;;;;24.21;48.06;102140.47;5053364;28;20021;-66
2022/04/12 08:50:58;;;;;;;0.17;0.10;;;;;;;24.19;47.77;102149.91;5053788;28;20491;-68
2022/04/12 08:53:23;;;;;;;0.43;0.13;;;;;;;24.20;48.10;102144.25;5051784;28;20033;-66
2022/04/12 08:55:48;;;;;;;0.70;0.10;;;;;;;24.18;48.55;102149.03;5051882;28;20032;-67
2022/04/12 08:58:13;;;;;;;0.85;0.13;;;;;;;24.13;47.38;102145.97;5053616;28;20040;-66
2022/04/12 09:00:39;;;;;;;0.73;0.20;;;;;;;24.10;46.82;102156.47;5048814;28;20430;-66
2022/04/12 09:03:04;;;;;;;1.20;0.55;;;;;;;24.19;46.27;102159.03;5051563;28;20033;-67
2022/04/12 09:05:32;;;;;;;0.52;0.10;;;;;;;24.11;45.96;102148.06;5055263;28;20025;-66
2022/04/12 09:07:58;;;;;;;1.20;0.13;;;;;;;24.09;46.25;102146.53;5074921;28;20024;-69
2022/04/12 09:10:36;;;;;;;0.10;0.10;;;;;;;24.17;45.86;102150.06;5052510;28;20029;-67
2022/04/12 09:13:09;;;;;;;1.10;0.17;;;;;;;24.20;46.72;102157.13;5048277;28;20025;-67
2022/04/12 09:15:45;;;;;;;3.73;0.47;;;;;;;24.20;46.94;102160.72;5053469;28;20117;-67
2022/04/12 09:18:11;;;;;;;0.32;0.05;;;;;;;24.18;47.00;102151.78;5053279;28;20029;-66
2022/04/12 09:20:36;;;;;;;0.70;0.40;;;;;;;24.23;47.66;102148.53;5057271;28;20460;-67
2022/04/12 09:23:01;;;;;;;1.85;0.50;;;;;;;24.23;47.02;102154.03;5061157;28;20032;-67
2022/04/12 09:25:27;;;;;;;0.40;0.30;;;;;;;24.19;48.46;102159.03;5054476;28;20041;-66
2022/04/12 09:27:55;;;;;;;3.72;0.47;;;;;;;24.22;48.77;102164.16;5073149;28;20082;-67
2022/04/12 09:30:21;;;;;;;2.05;0.40;;;;;;;24.21;48.33;102156.94;5069778;28;20379;-67
2022/04/12 09:32:48;;;;;;;0.77;0.40;;;;;;;24.27;48.33;102156.22;5051804;28;20498;-66
2022/04/12 09:35:14;;;;;;;0.85;0.22;;;;;;;24.29;48.09;102156.94;5058497;28;20108;-68
2022/04/12 09:37:45;;;;;;;0.40;0.20;;;;;;;24.29;48.59;102165.16;5058216;28;20116;-68
2022/04/12 09:40:15;;;;;;;0.47;0.22;;;;;;;24.28;48.89;102168.06;5049009;28;20074;-66
2022/04/12 09:42:51;;;;;;;0.65;0.13;;;;;;;24.32;48.17;102163.94;5053326;28;20027;-66
2022/04/12 09:45:17;;;;;;;0.55;0.25;;;;;;;24.35;48.52;102173.72;5053775;28;20074;-68
2022/04/12 09:47:43;;;;;;;2.13;0.70;;;;;;;24.35;48.36;102174.56;5061937;28;20021;-66
2022/04/12 09:50:10;;;;;;;1.35;0.30;;;;;;;24.44;48.71;102173.50;5053577;28;20029;-68
2022/04/12 09:52:36;;;;;;;2.70;0.43;;;;;;;24.44;48.70;102169.91;5054009;28;20065;-68
2022/04/12 09:55:01;;;;;;;1.00;0.30;;;;;;;24.49;48.77;102171.06;5065860;28;20059;-67
2022/04/12 09:57:26;;;;;;;1.42;0.40;;;;;;;24.52;49.40;102170.75;5057023;28;20025;-66
2022/04/12 09:59:56;;;;;;;0.45;0.20;;;;;;;24.57;48.99;102170.19;5057416;28;20048;-68
2022/04/12 10:02:23;;;;;;;1.52;0.20;;;;;;;24.56;48.92;102169.34;5060885;28;20067;-67
2022/04/12 10:04:51;;;;;;;1.52;0.40;;;;;;;24.50;49.47;102172.78;5052741;28;20055;-66
2022/04/12 10:07:18;;;;;;;2.20;0.40;;;;;;;24.59;48.96;102177.22;5057615;28;20360;-66
2022/04/12 10:09:44;;;;;;;0.65;0.20;;;;;;;24.55;49.51;102170.38;5053792;28;20017;-68
2022/04/12 10:12:10;;;;;;;0.88;0.20;;;;;;;24.60;49.78;102172.56;5053648;28;20104;-66
2022/04/12 10:14:35;;;;;;;0.10;0.08;;;;;;;24.54;50.07;102176.06;5053444;28;20044;-66
2022/04/12 10:17:01;;;;;;;0.70;0.10;;;;;;;24.54;48.66;102168.66;5053651;28;20083;-68
2022/04/12 10:19:27;;;;;;;0.35;0.13;;;;;;;24.55;49.86;102175.88;5052151;28;20075;-67
2022/04/12 10:21:53;;;;;;;0.52;0.10;;;;;;;24.56;49.19;102171.22;5052236;28;20116;-66
2022/04/12 10:24:18;;;;;;;0.25;0.00;;;;;;;24.53;49.06;102172.44;5051898;28;20115;-68
2022/04/12 10:26:46;;;;;;;1.45;0.50;;;;;;;24.58;49.24;102174.66;5053251;28;20063;-68
2022/04/12 10:29:13;;;;;;;1.48;0.30;;;;;;;24.61;48.55;102179.78;5053394;28;20074;-66
2022/04/12 10:31:53;;;;;;;0.93;0.20;;;;;;;24.63;49.10;102172.19;5053390;28;20104;-68
2022/04/12 10:34:18;;;;;;;2.30;0.40;;;;;;;24.63;49.13;102177.69;5059831;28;20032;-67
2022/04/12 10:37:07;;;;;;;1.38;0.30;;;;;;;24.65;48.28;102178.38;5053180;28;20025;-66
2022/04/12 10:39:34;;;;;;;0.30;0.10;;;;;;;24.66;48.98;102171.84;5053021;28;20043;-66
2022/04/12 10:42:03;;;;;;;1.83;0.25;;;;;;;24.69;48.42;102182.50;5053195;28;20025;-67
2022/04/12 10:44:35;;;;;;;0.70;0.10;;;;;;;24.66;48.05;102177.34;5053612;28;20025;-67
2022/04/12 10:47:01;;;;;;;0.57;0.20;;;;;;;24.69;48.61;102179.75;5053069;28;20024;-66
2022/04/12 10:49:34;;;;;;;0.65;0.10;;;;;;;24.75;48.43;102176.25;5053213;28;20017;-69
2022/04/12 10:52:00;;;;;;;1.05;0.22;;;;;;;24.75;48.50;102181.75;5052813;28;20431;-67
2022/04/12 10:54:30;;;;;;;1.85;0.35;;;;;;;24.78;48.40;102175.88;5052671;28;20108;-66
2022/04/12 10:57:26;;;;;;;2.35;0.68;;;;;;;24.78;47.72;102175.88;5052918;28;20078;-66
2022/04/12 11:00:01;;;;;;;0.80;0.17;;;;;;;24.75;48.96;102165.25;5052815;28;20029;-68
2022/04/12 11:02:57;;;;;;;1.15;0.25;;;;;;;24.70;49.46;102173.22;5051230;28;20376;-67
2022/04/12 11:05:37;;;;;;;1.67;0.40;;;;;;;24.66;49.28;102177.34;5047174;28;20044;-67
2022/04/12 11:08:14;;;;;;;0.88;0.20;;;;;;;24.60;48.67;102172.56;5052752;28;20496;-67
2022/04/12 11:11:06;;;;;;;1.95;0.30;;;;;;;24.60;48.46;102178.91;5052521;28;20491;-69
2022/04/12 11:13:34;;;;;;;1.20;0.35;;;;;;;24.55;48.47;102170.38;5060207;28;20052;-68
2022/04/12 11:16:11;;;;;;;1.85;0.30;;;;;;;24.53;48.32;102172.44;5051767;28;20020;-67
2022/04/12 11:18:48;;;;;;;0.40;0.20;;;;;;;24.56;49.74;102176.72;5052350;28;20021;-67
2022/04/12 11:21:15;;;;;;;0.70;0.10;;;;;;;24.60;49.60;102178.91;5051094;28;20062;-69
2022/04/12 11:23:48;;;;;;;1.05;0.30;;;;;;;24.55;nan;102180.50;5051166;28;20021;-68